createdAt,value
2023-05-02T00:02:48.588Z,46.60
2023-05-02T00:07:52.570Z,46.51
2023-05-02T00:12:54.533Z,46.01
2023-05-02T00:17:56.637Z,47.65
2023-05-02T00:22:59.987Z,49.49
2023-05-02T00:28:02.131Z,48.39
2023-05-02T00:33:06.884Z,47.36
2023-05-02T00:38:10.440Z,47.26
2023-05-02T00:43:12.501Z,47.26
2023-05-02T00:48:14.741Z,47.15
2023-05-02T00:53:18.208Z,47.43
2023-05-02T00:58:20.780Z,46.71
2023-05-02T01:03:36.971Z,46.29
2023-05-02T01:08:47.291Z,43.22
2023-05-02T01:13:53.076Z,43.81
2023-05-02T01:18:57.357Z,43.54
2023-05-02T01:24:06.951Z,44.50
2023-05-02T01:29:12.565Z,43.28
2023-05-02T01:34:15.711Z,43.19
2023-05-02T01:39:20.803Z,43.96
2023-05-02T01:44:25.437Z,44.92
2023-05-02T01:49:29.426Z,43.46
2023-05-02T01:54:33.374Z,43.97
2023-05-02T01:59:40.437Z,44.49
2023-05-02T02:04:43.602Z,42.59
2023-05-02T02:09:45.650Z,42.73
2023-05-02T02:14:56.090Z,39.66
2023-05-02T02:20:03.429Z,40.45
2023-05-02T02:25:07.981Z,41.68
2023-05-02T02:30:12.112Z,42.24
2023-05-02T02:35:14.225Z,40.82
2023-05-02T02:40:23.333Z,41.83
2023-05-02T02:45:35.343Z,42.02
2023-05-02T02:50:44.072Z,43.59
2023-05-02T02:55:52.169Z,43.45
2023-05-02T03:00:56.498Z,43.17
2023-05-02T03:05:59.441Z,43.06
2023-05-02T03:11:01.483Z,44.37
2023-05-02T03:16:31.309Z,44.65
2023-05-02T03:21:34.384Z,44.18
2023-05-02T03:26:36.354Z,45.22
2023-05-02T03:31:39.873Z,45.47
2023-05-02T03:36:42.053Z,43.81
2023-05-02T03:41:44.201Z,45.30
2023-05-02T03:46:48.243Z,44.87
2023-05-02T03:51:50.223Z,45.27
2023-05-02T03:56:53.614Z,45.15
2023-05-02T04:01:56.905Z,45.21
2023-05-02T04:06:58.838Z,45.92
2023-05-02T04:12:01.328Z,46.90
2023-05-02T04:17:07.814Z,46.31
2023-05-02T04:22:12.342Z,45.43
2023-05-02T04:27:15.402Z,46.38
2023-05-02T04:32:18.906Z,46.06
2023-05-02T04:37:21.276Z,46.29
2023-05-02T04:42:23.157Z,45.82
2023-05-02T04:47:26.618Z,45.81
2023-05-02T04:52:29.966Z,45.50
2023-05-02T04:57:31.936Z,45.15
2023-05-02T05:02:35.433Z,45.55
2023-05-02T05:07:37.590Z,44.66
2023-05-02T05:12:39.590Z,45.45
2023-05-02T05:17:43.026Z,45.16
2023-05-02T05:22:45.032Z,46.73
2023-05-02T05:27:47.146Z,44.46
2023-05-02T05:32:50.530Z,46.11
2023-05-02T05:37:53.244Z,45.52
2023-05-02T05:42:55.192Z,45.16
2023-05-02T05:47:58.647Z,44.41
2023-05-02T05:53:01.411Z,45.41
2023-05-02T05:58:03.704Z,43.05
2023-05-02T06:03:09.614Z,44.28
2023-05-02T06:08:12.124Z,43.50
2023-05-02T06:13:14.111Z,44.04
2023-05-02T06:18:17.652Z,43.71
2023-05-02T06:23:19.923Z,43.66
2023-05-02T06:28:21.747Z,42.81
2023-05-02T06:33:24.986Z,44.58
2023-05-02T06:38:26.996Z,42.16
2023-05-02T06:43:28.962Z,43.76
2023-05-02T06:48:32.314Z,43.31
2023-05-02T06:53:34.528Z,44.72
2023-05-02T06:58:36.355Z,42.49
2023-05-02T07:03:39.777Z,43.80
2023-05-02T07:08:41.820Z,43.70
2023-05-02T07:13:43.767Z,43.87
2023-05-02T07:18:47.059Z,43.95
2023-05-02T07:23:49.013Z,42.54
2023-05-02T07:28:50.977Z,43.14
2023-05-02T07:33:54.428Z,44.45
2023-05-02T07:38:56.506Z,43.79
2023-05-02T07:43:58.575Z,43.32
2023-05-02T07:49:01.775Z,42.36
2023-05-02T07:54:14.507Z,43.19
2023-05-02T07:59:16.464Z,42.61
2023-05-02T08:04:20.008Z,43.99
2023-05-02T08:09:22.168Z,42.60
2023-05-02T08:14:24.113Z,43.40
2023-05-02T08:19:27.927Z,44.86
2023-05-02T08:24:31.205Z,42.63
2023-05-02T08:29:33.281Z,42.75
2023-05-02T08:34:36.719Z,43.79
2023-05-02T08:39:38.760Z,45.00
2023-05-02T08:44:40.716Z,42.57
2023-05-02T08:49:45.932Z,42.51
2023-05-02T08:54:49.318Z,41.82
2023-05-02T08:59:51.315Z,38.70
2023-05-02T09:04:58.315Z,38.20
2023-05-02T09:10:00.702Z,38.45
2023-05-02T09:15:13.215Z,40.04
2023-05-02T09:20:17.094Z,40.89
2023-05-02T09:25:20.749Z,39.43
2023-05-02T09:30:24.897Z,37.83
2023-05-02T09:35:28.405Z,40.40
2023-05-02T09:40:32.518Z,38.12
2023-05-02T09:45:34.490Z,42.22
2023-05-02T09:50:38.758Z,41.69
2023-05-02T09:55:40.764Z,41.09
2023-05-02T10:00:44.785Z,42.22
2023-05-02T10:05:48.117Z,42.71
2023-05-02T10:10:55.859Z,42.25
2023-05-02T10:16:00.664Z,44.07
2023-05-02T10:21:08.793Z,45.37
2023-05-02T10:26:12.243Z,45.33
2023-05-02T10:31:15.365Z,45.80
2023-05-02T10:36:22.420Z,46.97
2023-05-02T10:41:26.828Z,48.78
2023-05-02T10:46:33.498Z,53.42
2023-05-02T10:51:38.478Z,54.45
2023-05-02T10:57:05.649Z,53.90
2023-05-02T11:02:48.735Z,50.06
2023-05-02T11:08:30.595Z,49.40
2023-05-02T11:13:51.309Z,49.96
2023-05-02T11:19:01.637Z,45.41
2023-05-02T11:24:42.126Z,44.13
2023-05-02T11:29:51.984Z,47.52
2023-05-02T11:34:55.589Z,48.51
2023-05-02T11:40:12.115Z,45.99
2023-05-02T11:45:14.275Z,46.69
2023-05-02T11:50:16.851Z,49.06
2023-05-02T11:55:20.229Z,49.84
2023-05-02T12:00:27.744Z,51.64
2023-05-02T12:05:30.389Z,50.99
2023-05-02T12:10:37.790Z,49.94
2023-05-02T12:15:40.078Z,48.00
2023-05-02T12:20:47.036Z,48.06
2023-05-02T12:26:18.214Z,47.40
2023-05-02T12:31:20.733Z,48.99
2023-05-02T12:36:23.079Z,48.16
2023-05-02T12:41:33.733Z,50.68
2023-05-02T12:46:36.637Z,50.66
2023-05-02T12:51:39.732Z,51.41
2023-05-02T12:56:44.061Z,54.89
2023-05-02T13:01:46.059Z,57.02
2023-05-02T13:06:48.098Z,60.43
2023-05-02T13:11:53.946Z,59.64
2023-05-02T13:16:57.419Z,51.30
2023-05-02T13:21:59.711Z,50.08
2023-05-02T13:27:03.094Z,52.90
2023-05-02T13:32:05.514Z,57.65
2023-05-02T13:37:07.633Z,69.79
2023-05-02T13:42:10.933Z,76.02
2023-05-02T13:47:12.884Z,81.58
2023-05-02T13:52:14.994Z,89.88
2023-05-02T13:57:18.363Z,90.08
2023-05-02T14:02:20.918Z,88.24
2023-05-02T14:07:23.270Z,85.22
2023-05-02T14:12:26.643Z,85.08
2023-05-02T14:17:30.142Z,83.07
2023-05-02T14:22:32.310Z,82.21
2023-05-02T14:27:36.408Z,81.63
2023-05-02T14:32:38.541Z,83.28
2023-05-02T14:37:40.910Z,77.49
2023-05-02T14:42:44.176Z,80.18
2023-05-02T14:47:47.142Z,77.28
2023-05-02T14:52:49.144Z,78.19
2023-05-02T14:57:52.932Z,82.22
2023-05-02T15:02:55.107Z,88.67
2023-05-02T15:07:57.144Z,91.82
2023-05-02T15:13:00.647Z,92.89
2023-05-02T15:18:02.875Z,95.44
2023-05-02T15:23:04.908Z,100.00
2023-05-02T15:28:08.295Z,100.00
2023-05-02T15:33:10.471Z,100.00
2023-05-02T15:38:12.445Z,100.00
2023-05-02T15:43:18.559Z,100.00
2023-05-02T15:48:21.020Z,100.00
2023-05-02T15:53:23.296Z,100.00
2023-05-02T15:58:26.607Z,100.00
2023-05-02T16:03:28.693Z,100.00
2023-05-02T16:08:30.983Z,100.00
2023-05-02T16:13:34.422Z,100.00
2023-05-02T16:18:36.384Z,100.00
2023-05-02T16:23:38.339Z,100.00
2023-05-02T16:28:41.801Z,100.00
2023-05-02T16:33:43.803Z,100.00
2023-05-02T16:38:46.173Z,100.00
2023-05-02T16:43:51.013Z,100.00
2023-05-02T16:48:53.116Z,100.00
2023-05-02T16:53:55.080Z,100.00
2023-05-02T16:58:58.466Z,100.00
2023-05-02T17:04:00.513Z,100.00
2023-05-02T17:09:03.729Z,100.00
2023-05-02T17:14:07.073Z,100.00
2023-05-02T17:19:09.040Z,100.00
2023-05-02T17:24:11.289Z,100.00
2023-05-02T17:29:14.986Z,100.00
2023-05-02T17:34:16.985Z,100.00
2023-05-02T17:39:19.099Z,100.00
2023-05-02T17:44:22.512Z,100.00
2023-05-02T17:49:24.453Z,100.00
2023-05-02T17:54:26.734Z,100.00
2023-05-02T17:59:30.106Z,100.00
2023-05-02T18:04:32.077Z,100.00
2023-05-02T18:09:34.076Z,100.00
2023-05-02T18:14:37.351Z,100.00
2023-05-02T18:19:39.348Z,100.00
2023-05-02T18:24:41.692Z,100.00
2023-05-02T18:29:45.100Z,100.00
2023-05-02T18:34:48.297Z,100.00
2023-05-02T18:39:50.429Z,100.00
2023-05-02T18:44:53.856Z,100.00
2023-05-02T18:49:59.389Z,100.00
2023-05-02T18:55:03.214Z,100.00
2023-05-02T19:00:08.220Z,100.00
2023-05-02T19:05:10.758Z,100.00
2023-05-02T19:10:12.797Z,100.00
2023-05-02T19:15:16.497Z,100.00
2023-05-02T19:20:18.820Z,100.00
2023-05-02T19:25:21.202Z,100.00
2023-05-02T19:30:24.882Z,100.00
2023-05-02T19:35:27.667Z,100.00
2023-05-02T19:40:29.792Z,100.00
2023-05-02T19:45:33.088Z,100.00
2023-05-02T19:50:35.657Z,100.00
2023-05-02T19:55:37.699Z,100.00
2023-05-02T20:00:43.813Z,100.00
2023-05-02T20:05:45.777Z,100.00
2023-05-02T20:10:47.896Z,100.00
2023-05-02T20:15:52.824Z,100.00
2023-05-02T20:20:55.095Z,100.00
2023-05-02T20:25:57.317Z,100.00
2023-05-02T20:31:01.806Z,100.00
2023-05-02T20:36:04.098Z,100.00
2023-05-02T20:41:10.541Z,100.00
2023-05-02T20:46:16.504Z,100.00
2023-05-02T20:51:18.616Z,100.00
2023-05-02T20:56:20.996Z,100.00
2023-05-02T21:01:25.432Z,100.00
2023-05-02T21:06:27.518Z,100.00
2023-05-02T21:11:29.673Z,100.00
2023-05-02T21:16:33.171Z,100.00
2023-05-02T21:21:35.227Z,100.00
2023-05-02T21:26:37.268Z,100.00
2023-05-02T21:31:40.677Z,100.00
2023-05-02T21:36:43.327Z,100.00
2023-05-02T21:41:45.327Z,100.00
2023-05-02T21:46:48.684Z,100.00
2023-05-02T21:51:50.644Z,100.00
2023-05-02T21:56:53.102Z,100.00
2023-05-02T22:01:57.314Z,100.00
2023-05-02T22:06:59.395Z,100.00
2023-05-02T22:12:01.391Z,100.00
2023-05-02T22:17:05.010Z,100.00
2023-05-02T22:22:07.217Z,100.00
2023-05-02T22:27:09.286Z,100.00
2023-05-02T22:32:12.602Z,100.00
2023-05-02T22:37:14.616Z,100.00
2023-05-02T22:42:16.625Z,100.00
2023-05-02T22:47:21.236Z,100.00
2023-05-02T22:52:23.186Z,100.00
2023-05-02T22:57:25.129Z,100.00
2023-05-02T23:02:28.658Z,100.00
2023-05-02T23:07:30.793Z,100.00
2023-05-02T23:12:33.664Z,100.00
2023-05-02T23:17:38.929Z,100.00
2023-05-02T23:22:44.197Z,100.00
2023-05-02T23:27:46.097Z,100.00
2023-05-02T23:32:49.560Z,100.00
2023-05-02T23:37:52.582Z,100.00
2023-05-02T23:42:54.598Z,100.00
2023-05-02T23:47:57.911Z,100.00
2023-05-02T23:52:59.954Z,100.00
2023-05-02T23:58:02.154Z,100.00
